Arlington, TN

12:17 PM CDT on September 02, 2014 (GMT -0500)
Salem Road Ranches | Change Station
CLOSE
Current Station
Personal Weather Station
Location: Lakeland, TN
Elevation: 400 ft
Nearby Weather Stations

Elev 400 ft 35.30 °N, 89.74 °W | Updated 4 seconds ago

Overcast
Overcast
84.7 °F
Feels Like 95 °F
N
0.0
Wind Variable Wind from South
Gusts 6.0 mph

Today
High -- | Low -- °F
--% Chance of Precip.
Yesterday
High -- | Low -- °F
Precip. -- in
6:32 AM 7:24 PM
First Quarter, 53% visible
Pressure 30.02 in
Visibility 10.0 miles
Clouds Mostly Cloudy 1900 ft
Mostly Cloudy 2500 ft
Heat Index 95 °F
Dew Point 77 °F
Humidity 78%
Rainfall 0.00 in
Snow Depth Not available.
UV 5 out of 12
Pollen 10.40 out of 12
Ozone Good
PM2.5 Good
Flu Activity Not available.
METAR KNQA 021650Z 21006KT 10SM BKN019 BKN025 31/26 A3002

More Conditions Fewer Conditions

Pressure 30.02 in
Visibility 10.0 miles
Clouds Mostly Cloudy 1900 ft
Mostly Cloudy 2500 ft
Heat Index 95 °F
Dew Point 77 °F
Humidity 78%
Rainfall 0.00 in
Snow Depth Not available.
UV 5 out of 12
Pollen 10.40 out of 12
Ozone Good
PM2.5 Good
Flu Activity Not available.
METAR KNQA 021650Z 21006KT 10SM BKN019 BKN025 31/26 A3002

More Conditions Fewer Conditions

10-Day Weather Forecast

Almanac

Astronomy

Sep. 02, 2014 Rise Set
Actual Time 6:32 AM CDT 7:24 PM CDT
Civil Twilight 6:06 AM CDT 7:50 PM CDT
Nautical Twilight 5:35 AM CDT 8:20 PM CDT
Astronomical Twilight 5:03 AM CDT 8:52 PM CDT
Moon 2:01 PM CDT No Moon Set
Length of Visible Light 13h 44m
Length of Day
12h 52m
Tomorrow will be 2m 8s shorter.
First Quarter, 53% of the Moon is Illuminated
Today
First Quarter
Sep 8
Full
Sep 15
Last Quarter
Sep 24
New
Oct 1
First Quarter

Today's Extremes

State Highs State Lows

Community

WunderPhotos

Upload Photos

1,749,719 photos uploaded!

WunderBlogs® & News

By Dr. Jeff Masters
Director of Meteorology, Weather Underground
By Kari Strenfel
Meteorologist, Weather Underground
By Christopher C. Burt
Weather Historian, Weather Underground
September 2, 2014
September 2, 2014
September 2, 2014

Nearby

Air Quality

  Air Quality AQ Index Pollutant
Yesterday Moderate
PM2.5
Yesterday Good
OZONE
Current Good
PM2.5
Current Good
OZONE
Tuesday Moderate
PM2.5
Tuesday Good
OZONE
Wednesday Moderate
PM2.5
Wednesday Good
OZONE

Snow Depth

Station Depth Elevation
No new snow has been reported.

Earthquake Activity

City Distance Mag. Time & Date
No recent earthquake activity has been reported nearby.
Minimum magnitude displayed is 2.5.

Coastal Water Temperatures

Place Temperature
No Stations Reporting

Nearby Weather Stations